Time;durP1;ratioP1;P1;durP2;ratioP2;P2;SDS_P1;SDS_P2;PMS_P1;PMS_P2;Temp;Humidity;BMP_temperature;BMP_pressure;BME280_temperature;BME280_humidity;BME280_pressure;Samples;Min_cycle;Max_cycle;Signal;HPM_P1;HPM_P2
2022/12/12 00:03:45;;;;;;;33.35;18.75;;;;;;;9.67;95.53;99191.00;1849025;76;22258;-54
2022/12/12 00:07:14;;;;;;;31.40;18.15;;;;;;;9.62;95.58;99190.78;1768442;80;21359;-54
2022/12/12 00:10:46;;;;;;;35.03;19.45;;;;;;;9.64;95.59;99181.02;1763868;80;21197;-54
2022/12/12 00:14:06;;;;;;;32.08;17.55;;;;;;;9.72;95.63;99178.14;1862853;76;22348;-54
2022/12/12 00:17:30;;;;;;;31.17;18.35;;;;;;;9.66;95.62;99177.03;1806848;79;21342;-58
2022/12/12 00:21:04;;;;;;;32.88;18.55;;;;;;;9.68;95.58;99169.48;1806681;79;21177;-58
2022/12/12 00:24:39;;;;;;;37.08;18.15;;;;;;;9.66;95.53;99162.00;1791255;79;21244;-57
2022/12/12 00:27:59;;;;;;;28.87;18.05;;;;;;;9.68;95.44;99161.80;1877599;76;22666;-59
2022/12/12 00:31:21;;;;;;;33.60;17.67;;;;;;;9.61;95.42;99159.56;1809829;79;21323;-57
2022/12/12 00:34:41;;;;;;;33.80;18.30;;;;;;;9.59;95.40;99165.23;1790475;79;21532;-58
2022/12/12 00:38:01;;;;;;;28.83;17.55;;;;;;;9.57;95.37;99169.19;1790401;79;21189;-57
2022/12/12 00:41:33;;;;;;;28.12;17.02;;;;;;;9.56;95.34;99175.16;1806755;79;21374;-54
2022/12/12 00:45:07;;;;;;;32.50;17.07;;;;;;;9.54;95.33;99175.91;1805025;79;21189;-55
2022/12/12 00:48:48;;;;;;;30.92;16.70;;;;;;;9.54;95.30;99170.95;1805730;79;21713;-54
2022/12/12 00:51:59;;;;;;;28.80;16.40;;;;;;;9.51;95.31;99169.48;1804505;79;21173;-58
2022/12/12 00:55:34;;;;;;;33.95;16.80;;;;;;;9.51;95.32;99166.75;1793957;79;21843;-58
2022/12/12 00:59:15;;;;;;;29.27;17.10;;;;;;;9.50;95.31;99167.77;1809686;78;21351;-54
2022/12/12 01:03:14;;;;;;;31.55;16.02;;;;;;;9.49;95.31;99175.66;1804460;79;21812;-54
2022/12/12 01:06:35;;;;;;;28.35;16.05;;;;;;;9.54;95.30;99180.00;1879653;76;22163;-54
2022/12/12 01:10:07;;;;;;;26.97;16.27;;;;;;;9.48;95.33;99187.60;1768852;81;21969;-59
2022/12/12 01:13:25;;;;;;;29.10;16.60;;;;;;;9.49;95.32;99164.73;1801727;79;21199;-58
2022/12/12 01:16:58;;;;;;;26.12;16.75;;;;;;;9.49;95.30;99170.19;1793009;79;21168;-54
2022/12/12 01:20:42;;;;;;;32.98;17.48;;;;;;;9.48;95.30;99152.09;1805908;79;21265;-54
2022/12/12 01:24:17;;;;;;;27.13;16.48;;;;;;;9.47;95.28;99164.07;1800852;79;21169;-58
2022/12/12 01:27:49;;;;;;;29.82;16.15;;;;;;;9.46;95.28;99174.69;1806409;79;21204;-59
2022/12/12 01:31:30;;;;;;;28.38;15.08;;;;;;;9.45;95.27;99174.34;1806247;79;21158;-58
2022/12/12 01:34:47;;;;;;;27.73;15.90;;;;;;;9.50;95.26;99178.70;1846704;76;22719;-59
2022/12/12 01:38:17;;;;;;;25.48;15.48;;;;;;;9.44;95.27;99180.00;1768615;81;21717;-54
2022/12/12 01:41:46;;;;;;;29.00;14.65;;;;;;;9.43;95.30;99170.98;1780996;80;21172;-54
2022/12/12 01:45:55;;;;;;;26.50;14.63;;;;;;;9.43;95.24;99170.13;1774084;80;21398;-60
2022/12/12 01:49:35;;;;;;;29.35;14.60;;;;;;;9.39;95.15;99172.41;1770904;80;21718;-54
2022/12/12 01:52:59;;;;;;;27.15;14.95;;;;;;;9.38;95.19;99172.61;1760499;79;21149;-53
2022/12/12 01:56:41;;;;;;;34.15;14.73;;;;;;;9.36;95.17;99174.69;1772207;79;21194;-54
2022/12/12 02:00:31;;;;;;;27.10;14.15;;;;;;;9.33;95.13;99162.28;1769440;79;21312;-55
2022/12/12 02:04:07;;;;;;;21.25;12.88;;;;;;;9.34;95.15;99166.69;1750463;81;21717;-58
2022/12/12 02:07:27;;;;;;;26.20;15.38;;;;;;;9.33;95.13;99166.38;1697361;82;21765;-59
2022/12/12 02:11:08;;;;;;;26.87;13.75;;;;;;;9.33;95.11;99177.30;1772218;79;21216;-59
2022/12/12 02:14:48;;;;;;;24.00;13.50;;;;;;;9.32;95.13;99191.16;1771118;80;21219;-54
2022/12/12 02:18:43;;;;;;;26.65;14.28;;;;;;;9.32;95.12;99192.01;1763194;80;21703;-54
2022/12/12 02:22:06;;;;;;;30.10;14.10;;;;;;;9.30;95.06;99172.75;1770663;80;21193;-53
2022/12/12 02:26:02;;;;;;;30.43;14.93;;;;;;;9.26;95.03;99175.02;1795526;80;21809;-54
2022/12/12 02:30:21;;;;;;;27.93;14.75;;;;;;;9.23;95.01;99174.05;1809414;77;21219;-53
2022/12/12 02:34:19;;;;;;;22.32;13.30;;;;;;;9.21;94.98;99157.05;1784970;78;21189;-53
2022/12/12 02:38:21;;;;;;;30.32;14.47;;;;;;;9.19;94.99;99160.48;1790222;79;21172;-53
2022/12/12 02:42:36;;;;;;;23.77;13.83;;;;;;;9.15;94.95;99170.09;1809665;79;21399;-54
2022/12/12 02:46:04;;;;;;;25.40;13.28;;;;;;;9.11;94.94;99159.26;1600405;85;21221;-58
2022/12/12 02:49:39;;;;;;;27.17;14.50;;;;;;;9.08;94.95;99180.13;1675506;85;21244;-58
2022/12/12 02:53:11;;;;;;;25.85;14.23;;;;;;;9.06;94.89;99188.52;1672971;85;21240;-59
2022/12/12 02:57:05;;;;;;;20.52;13.10;;;;;;;8.98;94.77;99173.62;1672878;85;21241;-59
2022/12/12 03:00:29;;;;;;;22.60;13.08;;;;;;;8.89;94.71;99177.54;1672911;86;21185;-53
2022/12/12 03:07:56;;;;;;;26.25;13.58;;;;;;;8.65;94.54;99166.99;1661588;85;21706;-57
2022/12/12 03:11:41;;;;;;;24.60;13.35;;;;;;;8.54;94.54;99168.00;1627848;86;21247;-58
2022/12/12 03:15:28;;;;;;;28.57;14.33;;;;;;;8.43;94.56;99166.63;1664250;85;21237;-54
2022/12/12 03:19:13;;;;;;;28.07;14.30;;;;;;;8.37;94.61;99155.65;1673905;84;21904;-59
2022/12/12 03:23:02;;;;;;;31.65;14.07;;;;;;;8.32;94.68;99160.31;1665691;86;21355;-59
2022/12/12 03:26:33;;;;;;;27.73;13.38;;;;;;;8.26;94.71;99152.05;1651138;85;21228;-55
2022/12/12 03:30:28;;;;;;;21.65;12.37;;;;;;;8.22;94.72;99164.33;1674065;85;21363;-53
2022/12/12 03:33:58;;;;;;;25.05;13.62;;;;;;;8.20;94.83;99170.47;1673999;84;21339;-54
2022/12/12 03:37:36;;;;;;;26.82;14.60;;;;;;;8.19;94.84;99179.19;1673366;85;21891;-54
2022/12/12 03:41:13;;;;;;;27.62;13.78;;;;;;;8.22;94.91;99180.17;1675432;84;21213;-58
2022/12/12 03:44:56;;;;;;;25.40;15.20;;;;;;;8.26;94.96;99182.86;1646377;86;21256;-58
2022/12/12 03:48:48;;;;;;;25.05;14.83;;;;;;;8.32;95.03;99187.58;1629775;87;21390;-53
2022/12/12 03:52:29;;;;;;;23.70;14.93;;;;;;;8.38;95.08;99196.35;1629111;87;21200;-54
2022/12/12 03:56:16;;;;;;;27.58;14.10;;;;;;;8.43;95.09;99197.14;1646346;87;21233;-57
2022/12/12 03:59:55;;;;;;;26.15;14.23;;;;;;;8.48;95.14;99207.78;1631423;86;21240;-58
2022/12/12 04:03:34;;;;;;;27.22;14.53;;;;;;;8.57;95.12;99209.38;1875151;76;22798;-58
2022/12/12 04:07:10;;;;;;;26.80;14.15;;;;;;;8.55;95.15;99211.95;1784751;79;21203;-55
2022/12/12 04:14:45;;;;;;;26.62;15.08;;;;;;;8.62;95.21;99212.89;1804543;79;21343;-58
2022/12/12 04:18:33;;;;;;;27.10;14.95;;;;;;;8.66;95.21;99207.37;1810047;79;21244;-58
2022/12/12 04:29:40;;;;;;;25.32;15.83;;;;;;;8.74;95.22;99199.06;1686418;81;21879;-53
2022/12/12 04:33:24;;;;;;;24.90;14.95;;;;;;;8.74;95.17;99197.20;1770970;81;21383;-53
2022/12/12 04:36:46;;;;;;;29.18;14.78;;;;;;;8.76;95.16;99179.27;1750951;81;21315;-59
2022/12/12 04:40:13;;;;;;;27.30;16.17;;;;;;;8.77;95.19;99178.22;1749353;81;21236;-59
2022/12/12 04:43:34;;;;;;;30.92;14.65;;;;;;;8.80;95.19;99170.50;1762875;81;21261;-59
2022/12/12 04:46:48;;;;;;;25.43;14.80;;;;;;;8.83;95.21;99170.64;1761787;79;21686;-58
2022/12/12 04:49:59;;;;;;;25.82;14.60;;;;;;;8.84;95.16;99170.95;1805209;79;21334;-59
2022/12/12 04:53:13;;;;;;;24.72;14.87;;;;;;;8.82;95.11;99173.88;1767311;81;21730;-59
2022/12/12 04:56:29;;;;;;;23.05;13.98;;;;;;;8.83;95.08;99176.10;1805974;79;21319;-59
2022/12/12 04:59:42;;;;;;;25.12;13.90;;;;;;;8.84;95.09;99172.32;1805702;78;21201;-60
2022/12/12 05:03:19;;;;;;;24.60;14.53;;;;;;;8.85;95.09;99165.81;1804283;78;21204;-58
2022/12/12 05:06:33;;;;;;;26.97;14.73;;;;;;;8.84;95.05;99168.23;1767371;81;21378;-58
2022/12/12 05:09:48;;;;;;;23.60;13.28;;;;;;;8.81;94.99;99175.44;1736755;82;21347;-59
2022/12/12 05:13:09;;;;;;;29.60;13.83;;;;;;;8.79;94.99;99181.60;1767594;80;21699;-58
2022/12/12 05:16:37;;;;;;;28.92;14.83;;;;;;;8.79;94.98;99174.27;1752984;81;21331;-58
2022/12/12 05:19:50;;;;;;;26.50;15.20;;;;;;;8.80;95.00;99177.86;1814748;79;21868;-59
2022/12/12 05:23:06;;;;;;;28.85;16.45;;;;;;;8.81;94.99;99180.90;1774866;81;21216;-58
2022/12/12 05:26:37;;;;;;;29.95;14.98;;;;;;;8.81;95.00;99165.89;1808990;78;21326;-58
2022/12/12 05:29:53;;;;;;;27.17;14.60;;;;;;;8.84;95.02;99161.41;1789797;79;21223;-58
2022/12/12 05:33:10;;;;;;;29.20;14.85;;;;;;;8.84;94.94;99160.04;1714407;83;21347;-58
2022/12/12 05:40:17;;;;;;;26.35;15.63;;;;;;;8.81;94.87;99155.83;1742328;82;21298;-58
2022/12/12 05:43:31;;;;;;;28.27;14.85;;;;;;;8.80;94.86;99162.31;1757889;79;21342;-59
2022/12/12 05:46:44;;;;;;;30.17;15.70;;;;;;;8.80;94.85;99156.85;1773030;80;21725;-59
2022/12/12 05:50:02;;;;;;;27.65;15.78;;;;;;;8.80;94.87;99141.02;1735180;82;21366;-59
2022/12/12 05:53:11;;;;;;;34.75;16.32;;;;;;;8.82;94.89;99137.56;1772567;79;21264;-59
2022/12/12 05:56:41;;;;;;;27.77;15.10;;;;;;;8.85;94.95;99146.71;1756630;81;21216;-59
2022/12/12 06:00:03;;;;;;;26.57;15.38;;;;;;;8.88;94.96;99139.50;1804099;79;21208;-58
2022/12/12 06:03:29;;;;;;;30.88;16.20;;;;;;;8.88;94.93;99151.27;1761125;79;21169;-62
2022/12/12 06:06:51;;;;;;;25.50;15.32;;;;;;;8.88;94.92;99154.00;1772724;81;21326;-60
2022/12/12 06:14:12;;;;;;;30.40;16.48;;;;;;;8.90;94.97;99161.98;1781302;79;21239;-60
2022/12/12 06:17:46;;;;;;;26.42;15.28;;;;;;;8.90;94.97;99150.56;1716902;81;22087;-60
2022/12/12 06:21:25;;;;;;;26.30;15.18;;;;;;;8.93;94.98;99154.77;1801224;79;21761;-62
2022/12/12 06:25:40;;;;;;;27.45;16.55;;;;;;;8.94;94.97;99156.48;1762965;81;21729;-60
2022/12/12 06:29:26;;;;;;;29.87;15.70;;;;;;;9.03;95.00;99141.65;1814736;76;22316;-62
2022/12/12 06:36:25;;;;;;;26.17;15.35;;;;;;;9.00;94.98;99151.09;1712382;82;21343;-57
2022/12/12 06:40:04;;;;;;;25.10;15.00;;;;;;;9.01;94.97;99156.00;1676645;83;21314;-56
2022/12/12 06:43:56;;;;;;;28.25;14.45;;;;;;;9.00;94.89;99148.88;1656855;79;21186;-55
2022/12/12 06:47:36;;;;;;;32.95;14.68;;;;;;;9.00;94.94;99149.72;1734769;82;21201;-61
2022/12/12 06:51:19;;;;;;;30.62;15.95;;;;;;;9.01;94.92;99153.27;1701813;82;21287;-59
2022/12/12 06:55:08;;;;;;;28.62;16.02;;;;;;;9.00;94.91;99144.27;1731265;82;21284;-61
2022/12/12 07:08:50;;;;;;;30.23;15.03;;;;;;;9.08;95.00;99146.00;1835175;77;22335;-61
2022/12/12 07:12:38;;;;;;;24.60;15.38;;;;;;;9.06;95.03;99155.75;1691913;81;21587;-61
2022/12/12 07:16:22;;;;;;;24.72;14.47;;;;;;;9.06;94.97;99136.65;1813310;78;21244;-60
2022/12/12 07:19:40;;;;;;;29.40;15.80;;;;;;;9.08;94.99;99146.00;1770250;80;21283;-60
2022/12/12 07:23:08;;;;;;;32.88;15.95;;;;;;;9.09;94.95;99144.95;1782522;78;21604;-60
2022/12/12 07:30:53;;;;;;;30.77;15.78;;;;;;;9.13;95.03;99153.09;1697950;82;21216;-60
2022/12/12 07:34:12;;;;;;;26.33;15.68;;;;;;;9.18;95.01;99147.86;1676463;85;21248;-61
2022/12/12 07:37:37;;;;;;;27.27;15.00;;;;;;;9.20;95.05;99145.78;1705145;83;21288;-61
2022/12/12 07:41:19;;;;;;;30.75;16.30;;;;;;;9.22;95.00;99149.17;1711670;82;21186;-60
2022/12/12 07:44:27;;;;;;;30.55;16.23;;;;;;;9.23;94.96;99153.58;1672068;85;21304;-60
2022/12/12 07:47:50;;;;;;;32.93;17.30;;;;;;;9.26;94.97;99149.63;1655108;86;21283;-60
2022/12/12 07:51:48;;;;;;;28.47;16.32;;;;;;;9.26;94.95;99146.35;1673427;85;21252;-62
2022/12/12 07:55:08;;;;;;;30.48;16.93;;;;;;;9.27;94.90;99151.30;1726089;82;21261;-61
2022/12/12 07:58:40;;;;;;;30.72;17.02;;;;;;;9.27;94.91;99148.06;1661743;85;21295;-61
2022/12/12 08:02:14;;;;;;;29.75;16.23;;;;;;;9.30;94.94;99141.34;1670405;85;21257;-60
2022/12/12 08:05:34;;;;;;;29.65;17.10;;;;;;;9.33;94.94;99154.59;1668045;85;21276;-60
2022/12/12 08:08:45;;;;;;;28.75;15.53;;;;;;;9.36;94.94;99161.88;1673161;84;21271;-60
2022/12/12 08:12:01;;;;;;;29.50;16.37;;;;;;;9.38;94.92;99154.86;1658042;83;21248;-61
2022/12/12 08:15:31;;;;;;;28.07;16.17;;;;;;;9.37;94.89;99144.44;1674166;83;21344;-62
2022/12/12 08:19:04;;;;;;;30.05;16.55;;;;;;;9.35;94.89;99146.55;1699180;82;21298;-60
2022/12/12 08:22:42;;;;;;;28.35;15.78;;;;;;;9.35;94.91;99141.09;1699336;82;21256;-60
2022/12/12 08:25:58;;;;;;;33.35;17.67;;;;;;;9.32;94.82;99144.73;1658812;86;21228;-60
2022/12/12 08:29:21;;;;;;;31.87;16.77;;;;;;;9.24;94.71;99137.54;1676573;85;21229;-55
2022/12/12 08:32:50;;;;;;;36.15;18.25;;;;;;;9.20;94.72;99130.77;1668636;85;21225;-55
2022/12/12 08:45:10;;;;;;;28.87;17.57;;;;;;;9.06;94.83;99128.45;1618226;84;21377;-56
2022/12/12 08:48:34;;;;;;;28.10;17.65;;;;;;;9.03;94.91;99119.81;1682947;83;21801;-55
2022/12/12 08:56:08;;;;;;;32.03;17.52;;;;;;;9.05;95.07;99118.56;1703674;82;20224;-55
2022/12/12 08:59:50;;;;;;;29.85;16.67;;;;;;;9.05;95.09;99126.75;1602845;88;21526;-55
2022/12/12 09:03:18;;;;;;;29.90;15.60;;;;;;;9.05;95.10;99125.93;1612160;89;22051;-55
2022/12/12 09:06:49;;;;;;;28.05;16.95;;;;;;;9.06;95.13;99117.55;1606040;88;21331;-55
2022/12/12 09:10:22;;;;;;;28.62;16.40;;;;;;;9.08;95.17;99121.44;1644436;86;21307;-54
2022/12/12 09:13:44;;;;;;;27.48;16.37;;;;;;;9.08;95.20;99111.89;1645077;85;21248;-55
2022/12/12 09:20:43;;;;;;;25.52;15.40;;;;;;;9.05;95.11;99109.55;1647966;84;21795;-54
2022/12/12 09:24:15;;;;;;;25.02;16.32;;;;;;;9.08;95.10;99120.08;1858928;76;22288;-53
2022/12/12 09:27:47;;;;;;;26.23;16.27;;;;;;;9.04;95.18;99125.58;1773527;79;21148;-55
2022/12/12 09:35:08;;;;;;;27.80;15.23;;;;;;;9.06;95.16;99115.33;1698362;79;21441;-54
2022/12/12 09:38:28;;;;;;;24.90;14.68;;;;;;;9.07;95.18;99126.55;1664611;84;21237;-55
2022/12/12 09:42:02;;;;;;;32.03;16.15;;;;;;;9.07;95.15;99122.46;1664473;84;21300;-55
2022/12/12 09:45:31;;;;;;;24.47;15.20;;;;;;;9.13;95.17;99122.20;1879106;76;22238;-54
2022/12/12 09:48:55;;;;;;;25.08;15.65;;;;;;;9.10;95.23;99137.11;1766768;81;21837;-54
2022/12/12 09:52:23;;;;;;;22.35;14.28;;;;;;;9.10;95.27;99146.12;1797083;79;21250;-55
2022/12/12 09:56:02;;;;;;;26.27;15.72;;;;;;;9.09;95.28;99151.27;1772682;80;21212;-54
2022/12/12 09:59:59;;;;;;;29.80;15.38;;;;;;;9.10;95.34;99154.31;1769839;80;21231;-53
2022/12/12 10:04:02;;;;;;;25.02;15.90;;;;;;;9.10;95.31;99163.04;1770364;79;21368;-54
2022/12/12 10:07:51;;;;;;;25.20;16.02;;;;;;;9.07;95.32;99157.44;1764682;81;21260;-54
2022/12/12 10:11:48;;;;;;;24.40;16.00;;;;;;;9.09;95.41;99158.09;1748257;81;21200;-53
2022/12/12 10:14:29;;;;;;;23.18;15.70;;;;;;;9.12;95.46;99171.85;1741614;82;21669;-58
2022/12/12 10:17:50;;;;;;;33.65;20.70;;;;;;;9.16;95.55;99177.27;1742044;81;21559;-56
2022/12/12 10:21:04;;;;;;;48.15;25.00;;;;;;;9.25;95.69;99177.44;1708736;83;21312;-58
2022/12/12 10:24:48;;;;;;;32.63;19.17;;;;;;;9.32;95.76;99174.27;1715363;82;21294;-58
2022/12/12 10:28:14;;;;;;;28.67;18.82;;;;;;;9.39;95.71;99168.31;1709285;83;21414;-59
2022/12/12 10:52:49;;;;;;;20.17;13.20;;;;;;;9.76;95.76;99198.55;1804917;79;22647;-58
2022/12/12 10:56:22;;;;;;;19.32;12.25;;;;;;;9.74;95.78;99200.11;1793137;80;21208;-57
2022/12/12 10:59:56;;;;;;;6.80;4.67;;;;;;;9.82;95.78;99218.23;1849109;77;21362;-52
2022/12/12 11:03:45;;;;;;;5.35;3.02;;;;;;;9.67;95.24;99220.23;1849841;77;21358;-55
2022/12/12 11:07:07;;;;;;;6.72;3.67;;;;;;;9.46;94.72;99225.22;1800897;77;21811;-55
2022/12/12 11:10:45;;;;;;;5.55;2.72;;;;;;;9.17;94.16;99229.95;1804936;79;21204;-56
2022/12/12 11:14:17;;;;;;;3.52;2.22;;;;;;;8.94;93.75;99239.17;1817433;79;21409;-55
2022/12/12 11:17:44;;;;;;;4.72;2.42;;;;;;;8.66;93.34;99241.47;1816591;79;21263;-56
2022/12/12 11:21:21;;;;;;;2.50;1.65;;;;;;;8.53;93.31;99245.41;1793893;79;21263;-54
2022/12/12 11:24:40;;;;;;;3.65;1.62;;;;;;;8.46;93.33;99247.20;1859389;76;21338;-55
2022/12/12 11:28:02;;;;;;;2.22;1.60;;;;;;;8.47;93.38;99243.42;1842709;76;21318;-55
2022/12/12 11:31:47;;;;;;;4.85;2.52;;;;;;;8.47;93.36;99244.78;1800840;77;21200;-53
2022/12/12 11:35:15;;;;;;;5.83;3.12;;;;;;;8.52;93.39;99238.25;1847707;76;21232;-57
2022/12/12 11:42:50;;;;;;;8.68;5.45;;;;;;;8.58;93.27;99242.43;1713931;82;21386;-54
2022/12/12 11:45:46;;;;;;;24.55;15.43;;;;;;;8.60;93.26;99241.73;1674231;84;21364;-53
2022/12/12 11:49:30;;;;;;;42.95;30.65;;;;;;;8.62;93.20;99245.12;1703472;83;21402;-54
2022/12/12 11:53:28;;;;;;;12.55;8.50;;;;;;;8.70;93.25;99254.56;1830929;74;22267;-54
2022/12/12 11:57:28;;;;;;;10.55;6.47;;;;;;;8.74;93.22;99267.27;1856695;76;23066;-57
2022/12/12 12:05:11;;;;;;;2.30;1.62;;;;;;;8.56;92.86;99281.31;1713501;79;21271;-53
2022/12/12 12:09:09;;;;;;;2.35;1.60;;;;;;;8.35;92.68;99294.03;1645641;84;21920;-53
2022/12/12 12:12:56;;;;;;;2.98;1.87;;;;;;;8.15;92.40;99311.96;1691650;81;21218;-54
2022/12/12 12:20:53;;;;;;;2.17;1.90;;;;;;;7.67;92.04;99326.03;1740438;79;21279;-55
2022/12/12 12:25:03;;;;;;;3.12;2.30;;;;;;;7.43;91.88;99344.27;1735676;80;21603;-55
2022/12/12 12:29:11;;;;;;;2.17;1.90;;;;;;;7.17;91.59;99344.25;1737744;78;21617;-53
2022/12/12 12:33:10;;;;;;;3.72;2.58;;;;;;;6.84;91.32;99349.04;1712481;80;21283;-54
2022/12/12 12:37:13;;;;;;;9.15;6.55;;;;;;;6.64;91.33;99368.68;1853074;74;22769;-56
2022/12/12 12:41:13;;;;;;;10.28;7.25;;;;;;;6.51;91.41;99373.81;1708181;79;21271;-55
2022/12/12 12:44:43;;;;;;;4.28;3.45;;;;;;;6.38;91.36;99390.67;1749760;79;21239;-55
2022/12/12 12:48:07;;;;;;;3.90;2.80;;;;;;;6.23;91.43;99393.77;1767984;76;21387;-54
2022/12/12 12:51:25;;;;;;;3.10;2.22;;;;;;;6.15;91.50;99396.50;1716782;79;21256;-53
2022/12/12 12:55:05;;;;;;;3.30;2.30;;;;;;;6.12;91.53;99399.53;1742856;77;21298;-55
2022/12/12 12:58:44;;;;;;;2.55;1.55;;;;;;;6.16;91.61;99395.47;1762482;78;21237;-53
2022/12/12 13:02:52;;;;;;;4.12;2.45;;;;;;;6.21;91.71;99394.95;1747954;76;21264;-57
2022/12/12 13:06:16;;;;;;;6.45;3.02;;;;;;;6.20;91.64;99400.05;1741024;78;21635;-54
2022/12/12 13:10:08;;;;;;;6.12;3.52;;;;;;;6.15;91.53;99406.51;1790987;76;22224;-55
2022/12/12 13:13:37;;;;;;;6.25;3.30;;;;;;;6.05;91.48;99416.20;1746528;77;21449;-53
2022/12/12 13:17:06;;;;;;;6.15;3.22;;;;;;;5.98;91.53;99413.81;1744121;77;22167;-55
2022/12/12 13:20:33;;;;;;;3.53;2.30;;;;;;;5.93;91.49;99432.51;1745659;78;21263;-54
2022/12/12 13:24:14;;;;;;;2.87;1.87;;;;;;;5.89;91.47;99439.28;1773716;77;21512;-55
2022/12/12 13:27:46;;;;;;;3.47;2.17;;;;;;;5.78;91.42;99440.44;1764640;77;21313;-54
2022/12/12 13:31:55;;;;;;;3.27;1.92;;;;;;;5.67;91.47;99448.05;1771234;77;21867;-54
2022/12/12 13:35:12;;;;;;;1.67;1.40;;;;;;;5.59;91.36;99448.05;1776373;76;21578;-54
2022/12/12 13:38:34;;;;;;;1.10;1.00;;;;;;;5.45;91.34;99464.98;1744003;79;22402;-53
2022/12/12 13:42:06;;;;;;;2.27;1.30;;;;;;;5.33;91.23;99469.00;1765160;78;21213;-54
2022/12/12 13:45:42;;;;;;;10.58;5.37;;;;;;;5.22;91.33;99466.09;1782001;76;21397;-55
2022/12/12 13:48:53;;;;;;;3.95;2.42;;;;;;;5.17;91.43;99473.03;1716440;79;21750;-53
2022/12/12 13:52:44;;;;;;;8.65;4.95;;;;;;;5.10;91.42;99468.77;1716673;78;21231;-54
2022/12/12 13:56:48;;;;;;;4.87;2.95;;;;;;;5.04;91.43;99476.70;1775342;75;21603;-56
2022/12/12 14:00:09;;;;;;;4.00;3.02;;;;;;;4.95;91.38;99487.19;1788592;78;21418;-55
2022/12/12 14:03:36;;;;;;;8.25;6.62;;;;;;;4.87;91.42;99487.14;1764050;78;21212;-56
2022/12/12 14:06:54;;;;;;;;;;;;;;;4.80;91.42;99487.43;1766610;77;21354;-54
2022/12/12 14:10:39;;;;;;;5.87;4.45;;;;;;;4.77;91.54;99485.05;1758789;76;20298;-53
2022/12/12 14:13:54;;;;;;;5.47;3.62;;;;;;;4.79;91.71;99489.81;1756404;77;21342;-53
2022/12/12 14:17:16;;;;;;;11.25;6.37;;;;;;;4.81;91.80;99508.09;1763125;77;21236;-54
2022/12/12 14:20:40;;;;;;;8.00;4.12;;;;;;;4.77;91.76;99508.95;1751874;77;21876;-55
2022/12/12 14:24:02;;;;;;;10.95;6.40;;;;;;;4.72;91.63;99511.77;1738960;79;21234;-54
2022/12/12 14:27:22;;;;;;;20.93;10.03;;;;;;;4.63;91.56;99521.70;1758530;77;21366;-54
2022/12/12 14:31:23;;;;;;;14.05;8.95;;;;;;;4.54;91.46;99511.83;1748448;79;21685;-55
2022/12/12 14:35:24;;;;;;;11.57;7.83;;;;;;;4.49;91.49;99519.58;1759139;77;21726;-55
2022/12/12 14:39:04;;;;;;;10.03;5.50;;;;;;;4.46;91.50;99522.11;1744163;77;21295;-59
2022/12/12 14:42:41;;;;;;;7.53;5.42;;;;;;;4.43;91.55;99531.05;1760104;77;21337;-54
2022/12/12 14:46:08;;;;;;;18.12;10.58;;;;;;;4.45;91.67;99531.27;1747497;77;21226;-56
2022/12/12 14:49:25;;;;;;;9.08;6.37;;;;;;;4.46;91.67;99538.86;1774604;76;21216;-57
2022/12/12 14:53:09;;;;;;;15.63;8.83;;;;;;;4.42;91.65;99539.67;1770526;76;21252;-56
2022/12/12 15:00:46;;;;;;;17.77;10.08;;;;;;;4.33;91.53;99560.09;1699523;84;21606;-54
2022/12/12 15:04:24;;;;;;;18.55;11.65;;;;;;;4.32;91.57;99561.11;1669349;84;21256;-53
2022/12/12 15:08:08;;;;;;;17.85;7.90;;;;;;;4.33;91.64;99569.08;1680165;81;21796;-55
2022/12/12 15:15:40;;;;;;;24.12;17.67;;;;;;;4.39;91.72;99567.09;1719254;82;21251;-60
2022/12/12 15:18:57;;;;;;;21.62;15.85;;;;;;;4.37;91.62;99571.84;1686977;84;21229;-59
2022/12/12 15:22:12;;;;;;;18.12;12.37;;;;;;;4.38;91.70;99570.81;1667558;84;21811;-59
2022/12/12 15:25:28;;;;;;;12.35;9.25;;;;;;;4.38;91.65;99581.66;1640433;86;21222;-60
2022/12/12 15:28:39;;;;;;;11.40;8.90;;;;;;;4.30;91.44;99580.23;1666002;86;21321;-59
2022/12/12 15:31:54;;;;;;;10.63;8.60;;;;;;;4.22;91.33;99590.13;1644569;84;21775;-59
2022/12/12 15:35:12;;;;;;;12.70;9.45;;;;;;;4.10;91.20;99588.66;1660796;85;21624;-60
2022/12/12 15:38:21;;;;;;;11.65;9.15;;;;;;;4.06;91.25;99587.28;1666193;85;21266;-59
2022/12/12 15:41:32;;;;;;;14.05;10.45;;;;;;;4.05;91.37;99586.42;1666306;85;21705;-59
2022/12/12 15:44:42;;;;;;;14.13;10.20;;;;;;;4.07;91.42;99591.19;1659584;84;21797;-59
2022/12/12 15:47:57;;;;;;;13.45;10.45;;;;;;;4.12;91.50;99591.55;1664306;85;21280;-60
2022/12/12 15:51:12;;;;;;;14.33;9.48;;;;;;;4.09;91.40;99589.16;1671618;84;21782;-58
2022/12/12 15:54:25;;;;;;;22.40;15.35;;;;;;;4.09;91.43;99599.98;1668497;86;21241;-59
2022/12/12 15:57:53;;;;;;;24.27;14.78;;;;;;;4.10;91.47;99603.06;1660553;84;21489;-58
2022/12/12 16:01:28;;;;;;;16.70;11.03;;;;;;;4.10;91.37;99614.39;1656614;85;21232;-59
2022/12/12 16:04:44;;;;;;;15.32;11.35;;;;;;;4.03;91.21;99606.52;1669064;85;22253;-59
2022/12/12 16:08:02;;;;;;;16.80;11.75;;;;;;;3.97;91.29;99603.94;1681759;84;21303;-59
2022/12/12 16:11:39;;;;;;;16.15;11.18;;;;;;;3.95;91.26;99603.72;1669732;84;21194;-55
2022/12/12 16:15:35;;;;;;;17.73;11.80;;;;;;;3.91;91.22;99595.08;1667685;84;21248;-55
2022/12/12 16:19:06;;;;;;;16.82;10.35;;;;;;;3.87;91.23;99599.08;1664660;85;21400;-56
2022/12/12 16:22:54;;;;;;;14.43;10.15;;;;;;;3.87;91.29;99596.37;1664344;86;21232;-54
2022/12/12 16:26:06;;;;;;;16.00;10.35;;;;;;;3.87;91.34;99606.38;1642768;84;21189;-54
2022/12/12 16:29:26;;;;;;;13.32;9.30;;;;;;;3.88;91.35;99610.28;1655919;85;21608;-53
2022/12/12 16:32:41;;;;;;;13.90;8.78;;;;;;;3.86;91.35;99597.88;1657721;85;21284;-56
2022/12/12 16:35:57;;;;;;;13.35;8.88;;;;;;;3.85;91.35;99599.76;1655382;85;21238;-55
2022/12/12 16:39:15;;;;;;;14.03;10.43;;;;;;;3.80;91.25;99607.48;1645586;85;21255;-54
2022/12/12 16:42:28;;;;;;;14.40;9.73;;;;;;;3.79;91.33;99623.35;1657050;85;21892;-55
2022/12/12 16:45:40;;;;;;;12.55;8.75;;;;;;;3.79;91.28;99623.88;1668212;84;21413;-55
2022/12/12 16:48:51;;;;;;;15.80;9.25;;;;;;;3.74;91.17;99622.12;1656709;86;21296;-56
2022/12/12 16:52:03;;;;;;;18.48;11.60;;;;;;;3.73;91.29;99640.20;1656709;85;21516;-55
2022/12/12 16:55:27;;;;;;;30.20;14.13;;;;;;;3.78;91.41;99631.62;1655463;85;21607;-55
2022/12/12 16:58:46;;;;;;;24.07;13.15;;;;;;;3.85;91.57;99633.59;1635275;86;21233;-55
2022/12/12 17:01:54;;;;;;;16.02;9.50;;;;;;;3.92;91.58;99646.86;1634994;86;21237;-55
2022/12/12 17:05:11;;;;;;;26.90;13.70;;;;;;;3.93;91.55;99644.48;1654457;84;21250;-55
2022/12/12 17:08:22;;;;;;;;;;;;;;;3.99;91.59;99652.52;1665878;86;21875;-55
2022/12/12 17:11:38;;;;;;;24.57;14.70;;;;;;;4.05;91.64;99666.30;1663421;85;20196;-54
2022/12/12 17:14:45;;;;;;;23.98;13.50;;;;;;;4.09;91.72;99665.50;1663773;85;21847;-55
2022/12/12 17:17:57;;;;;;;31.07;18.95;;;;;;;4.08;91.52;99659.72;1613515;86;21254;-54
2022/12/12 17:21:10;;;;;;;;;;;;;;;4.09;91.48;99658.21;1631009;87;21795;-55
2022/12/12 17:24:19;;;;;;;25.85;13.68;;;;;;;4.07;91.35;99657.53;1627932;86;20215;-55
2022/12/12 17:27:29;;;;;;;39.58;18.55;;;;;;;3.97;91.12;99654.52;1660132;85;21207;-54
2022/12/12 17:30:41;;;;;;;30.23;16.00;;;;;;;3.93;91.12;99660.73;1629265;87;21236;-54
2022/12/12 17:33:52;;;;;;;23.12;12.18;;;;;;;3.89;91.02;99654.42;1645422;85;21258;-55
2022/12/12 17:37:05;;;;;;;19.95;12.68;;;;;;;3.89;90.98;99655.77;1663677;84;21250;-55
2022/12/12 17:40:24;;;;;;;17.25;10.88;;;;;;;3.83;90.83;99649.63;1605106;88;21399;-56
2022/12/12 17:43:32;;;;;;;29.40;15.30;;;;;;;3.79;90.87;99653.65;1604997;86;21320;-55
2022/12/12 17:46:41;;;;;;;18.80;11.30;;;;;;;3.79;90.89;99650.42;1589410;88;21248;-55
2022/12/12 17:49:54;;;;;;;17.35;10.20;;;;;;;3.77;90.77;99652.45;1633752;86;21264;-55
2022/12/12 17:53:07;;;;;;;19.62;12.23;;;;;;;3.73;90.73;99657.79;1610728;88;21211;-55
2022/12/12 17:56:25;;;;;;;21.45;12.40;;;;;;;3.70;90.76;99662.16;1620192;87;22086;-54
2022/12/12 17:59:33;;;;;;;;;;;;;;;3.70;90.78;99670.77;1630688;87;21375;-58
2022/12/12 18:02:47;;;;;;;16.07;9.70;;;;;;;3.68;90.73;99672.27;1656934;85;20236;-54
2022/12/12 18:06:00;;;;;;;12.75;9.40;;;;;;;3.63;90.70;99678.63;1660978;85;21233;-55
2022/12/12 18:09:13;;;;;;;14.15;9.48;;;;;;;3.60;90.65;99679.45;1584316;87;21273;-54